createdAt,value
2023-11-26T00:00:06.433Z,1.70
2023-11-26T00:02:32.907Z,2.00
2023-11-26T00:04:59.287Z,2.03
2023-11-26T00:07:26.153Z,1.70
2023-11-26T00:09:52.460Z,1.50
2023-11-26T00:12:18.744Z,1.50
2023-11-26T00:14:45.101Z,1.33
2023-11-26T00:17:11.454Z,1.67
2023-11-26T00:19:37.852Z,1.37
2023-11-26T00:22:05.328Z,1.67
2023-11-26T00:24:32.022Z,1.40
2023-11-26T00:26:58.337Z,2.43
2023-11-26T00:29:24.785Z,1.90
2023-11-26T00:31:51.154Z,1.80
2023-11-26T00:34:17.522Z,2.10
2023-11-26T00:36:43.863Z,1.80
2023-11-26T00:39:10.268Z,1.60
2023-11-26T00:41:36.993Z,1.80
2023-11-26T00:44:03.380Z,1.77
2023-11-26T00:46:29.726Z,1.90
2023-11-26T00:48:55.995Z,1.63
2023-11-26T00:51:22.868Z,1.87
2023-11-26T00:53:51.859Z,1.27
2023-11-26T00:56:18.331Z,1.70
2023-11-26T00:58:46.060Z,1.33
2023-11-26T01:01:12.629Z,1.80
2023-11-26T01:03:39.032Z,1.70
2023-11-26T01:06:05.418Z,1.80
2023-11-26T01:08:32.063Z,1.50
2023-11-26T01:10:58.607Z,1.97
2023-11-26T01:13:24.954Z,1.40
2023-11-26T01:15:51.232Z,1.73
2023-11-26T01:18:17.563Z,1.50
2023-11-26T01:20:43.904Z,1.40
2023-11-26T01:23:10.301Z,1.10
2023-11-26T01:25:36.674Z,1.30
2023-11-26T01:28:02.997Z,1.30
2023-11-26T01:30:29.263Z,1.40
2023-11-26T01:32:55.612Z,1.10
2023-11-26T01:35:21.897Z,1.13
2023-11-26T01:37:48.297Z,1.10
2023-11-26T01:40:14.629Z,1.23
2023-11-26T01:42:44.878Z,1.40
2023-11-26T01:45:12.743Z,1.20
2023-11-26T01:47:40.205Z,1.50
2023-11-26T01:50:07.846Z,1.20
2023-11-26T01:52:34.194Z,1.30
2023-11-26T01:55:00.568Z,1.50
2023-11-26T01:57:26.861Z,1.30
2023-11-26T01:59:53.203Z,1.50
2023-11-26T02:02:19.601Z,1.60
2023-11-26T02:04:45.959Z,1.40
2023-11-26T02:07:12.338Z,1.40
2023-11-26T02:09:38.764Z,1.50
2023-11-26T02:12:08.870Z,1.37
2023-11-26T02:14:35.197Z,1.47
2023-11-26T02:17:01.539Z,1.40
2023-11-26T02:19:38.886Z,1.43
2023-11-26T02:22:09.168Z,1.80
2023-11-26T02:24:41.235Z,1.40
2023-11-26T02:27:07.529Z,1.40
2023-11-26T02:29:33.851Z,1.30
2023-11-26T02:32:00.174Z,1.30
2023-11-26T02:34:26.497Z,1.30
2023-11-26T02:36:53.575Z,1.50
2023-11-26T02:39:20.211Z,1.40
2023-11-26T02:41:46.520Z,1.60
2023-11-26T02:44:12.900Z,1.43
2023-11-26T02:46:39.243Z,1.40
2023-11-26T02:49:05.652Z,1.40
2023-11-26T02:51:32.929Z,1.60
2023-11-26T02:53:59.290Z,1.60
2023-11-26T02:56:26.688Z,1.90
2023-11-26T02:58:53.049Z,1.60
2023-11-26T03:01:19.893Z,1.67
2023-11-26T03:03:50.269Z,1.80
2023-11-26T03:06:17.249Z,2.00
2023-11-26T03:08:44.431Z,2.00
2023-11-26T03:11:29.727Z,1.70
2023-11-26T03:13:57.067Z,1.70
2023-11-26T03:16:27.522Z,1.87
2023-11-26T03:18:54.165Z,2.00
2023-11-26T03:21:27.459Z,1.97
2023-11-26T03:23:54.783Z,1.93
2023-11-26T03:26:26.862Z,1.83
2023-11-26T03:28:53.909Z,1.83
2023-11-26T03:31:20.793Z,1.80
2023-11-26T03:33:47.138Z,1.93
2023-11-26T03:36:13.469Z,2.37
2023-11-26T03:38:39.833Z,2.03
2023-11-26T03:41:06.263Z,2.20
2023-11-26T03:43:32.616Z,2.10
2023-11-26T03:45:58.985Z,2.20
2023-11-26T03:48:25.354Z,2.10
2023-11-26T03:50:51.642Z,2.17
2023-11-26T03:53:17.975Z,1.80
2023-11-26T03:55:44.308Z,1.63
2023-11-26T03:58:11.398Z,1.60
2023-11-26T04:00:39.132Z,1.80
2023-11-26T04:03:05.518Z,1.60
2023-11-26T04:05:31.844Z,1.50
2023-11-26T04:07:58.199Z,1.33
2023-11-26T04:10:31.320Z,1.60
2023-11-26T04:13:01.439Z,1.60
2023-11-26T04:15:27.815Z,1.90
2023-11-26T04:17:54.178Z,1.70
2023-11-26T04:20:20.811Z,1.93
2023-11-26T04:22:47.119Z,2.00
2023-11-26T04:25:13.465Z,2.00
2023-11-26T04:27:39.780Z,1.83
2023-11-26T04:30:08.234Z,2.23
2023-11-26T04:32:34.678Z,2.33
2023-11-26T04:35:01.190Z,2.30
2023-11-26T04:37:28.152Z,2.33
2023-11-26T04:39:55.345Z,2.20
2023-11-26T04:42:22.207Z,2.13
2023-11-26T04:44:48.481Z,2.40
2023-11-26T04:47:15.958Z,2.23
2023-11-26T04:49:42.454Z,2.10
2023-11-26T04:52:09.688Z,2.13
2023-11-26T04:54:36.044Z,2.20
2023-11-26T04:57:02.417Z,2.13
2023-11-26T04:59:28.816Z,2.13
2023-11-26T05:01:57.132Z,2.13
2023-11-26T05:04:23.729Z,2.00
2023-11-26T05:06:50.087Z,2.20
2023-11-26T05:09:17.384Z,2.30
2023-11-26T05:11:44.559Z,2.33
2023-11-26T05:14:11.414Z,2.53
2023-11-26T05:16:38.064Z,2.50
2023-11-26T05:19:04.492Z,2.90
2023-11-26T05:21:30.854Z,2.30
2023-11-26T05:23:57.205Z,2.20
2023-11-26T05:26:23.528Z,2.40
2023-11-26T05:28:49.872Z,2.17
2023-11-26T05:31:16.270Z,2.13
2023-11-26T05:33:42.603Z,1.90
2023-11-26T05:36:09.223Z,2.30
2023-11-26T05:38:35.631Z,2.20
2023-11-26T05:41:02.039Z,2.37
2023-11-26T05:43:28.600Z,2.20
2023-11-26T05:45:55.017Z,2.20
2023-11-26T05:48:21.485Z,2.07
2023-11-26T05:50:47.875Z,2.50
2023-11-26T05:53:14.141Z,2.53
2023-11-26T05:55:40.438Z,2.87
2023-11-26T05:58:06.802Z,2.17
2023-11-26T06:00:33.221Z,2.40
2023-11-26T06:02:59.583Z,2.30
2023-11-26T06:05:25.922Z,2.70
2023-11-26T06:07:52.276Z,2.50
2023-11-26T06:10:18.614Z,3.00
2023-11-26T06:12:44.926Z,2.50
2023-11-26T06:15:12.016Z,2.77
2023-11-26T06:17:38.372Z,2.70
2023-11-26T06:20:04.876Z,2.63
2023-11-26T06:22:31.166Z,3.23
2023-11-26T06:24:58.395Z,2.40
2023-11-26T06:27:24.747Z,2.23
2023-11-26T06:29:51.094Z,2.20
2023-11-26T06:32:18.350Z,2.40
2023-11-26T06:34:44.675Z,1.93
2023-11-26T06:37:10.989Z,2.40
2023-11-26T06:39:37.598Z,1.93
2023-11-26T06:42:06.096Z,2.20
2023-11-26T06:44:32.396Z,2.27
2023-11-26T06:47:00.343Z,2.57
2023-11-26T06:49:28.890Z,2.37
2023-11-26T06:51:57.039Z,2.50
2023-11-26T06:54:23.633Z,2.33
2023-11-26T06:56:50.011Z,2.83
2023-11-26T06:59:16.311Z,2.57
2023-11-26T07:01:42.855Z,2.50
2023-11-26T07:04:09.772Z,2.33
2023-11-26T07:06:36.549Z,2.43
2023-11-26T07:09:07.253Z,2.40
2023-11-26T07:11:33.537Z,2.50
2023-11-26T07:14:00.219Z,2.50
2023-11-26T07:16:26.718Z,2.20
2023-11-26T07:18:53.102Z,2.60
2023-11-26T07:21:19.564Z,2.57
2023-11-26T07:23:47.656Z,2.90
2023-11-26T07:26:14.333Z,3.10
2023-11-26T07:28:40.978Z,2.70
2023-11-26T07:31:14.492Z,2.73
2023-11-26T07:33:41.352Z,2.47
2023-11-26T07:36:12.617Z,2.20
2023-11-26T07:38:39.017Z,2.80
2023-11-26T07:41:05.339Z,2.63
2023-11-26T07:43:31.616Z,2.60
2023-11-26T07:45:58.891Z,2.57
2023-11-26T07:48:25.273Z,2.60
2023-11-26T07:50:51.556Z,2.60
2023-11-26T07:53:18.030Z,2.27
2023-11-26T07:55:44.391Z,2.40
2023-11-26T07:58:10.699Z,2.87
2023-11-26T08:00:37.742Z,2.63
2023-11-26T08:03:04.706Z,2.50
2023-11-26T08:05:31.516Z,2.40
2023-11-26T08:07:58.309Z,2.63
2023-11-26T08:10:27.940Z,2.63
2023-11-26T08:12:54.286Z,2.97
2023-11-26T08:15:21.505Z,3.00
2023-11-26T08:17:52.097Z,2.77
2023-11-26T08:20:19.874Z,3.23
2023-11-26T08:22:47.937Z,2.90
2023-11-26T08:25:18.919Z,3.03
2023-11-26T08:27:49.698Z,2.83
2023-11-26T08:30:34.833Z,2.90
2023-11-26T08:33:03.461Z,2.57
2023-11-26T08:35:33.838Z,2.77
2023-11-26T08:38:03.807Z,3.00
2023-11-26T08:40:36.849Z,3.00
2023-11-26T08:43:03.976Z,2.77
2023-11-26T08:45:31.952Z,2.50
2023-11-26T08:47:58.313Z,2.70
2023-11-26T08:50:25.370Z,2.90
2023-11-26T08:52:54.252Z,2.77
2023-11-26T08:55:21.243Z,2.27
2023-11-26T08:57:47.759Z,2.77
2023-11-26T09:00:14.257Z,3.03
2023-11-26T09:02:41.433Z,2.70
2023-11-26T09:05:09.297Z,2.87
2023-11-26T09:07:42.669Z,2.97
2023-11-26T09:10:09.497Z,7.33
2023-11-26T09:12:37.588Z,7.47
2023-11-26T09:15:08.290Z,2.90
2023-11-26T09:17:35.122Z,2.63
2023-11-26T09:20:01.431Z,2.63
2023-11-26T09:22:27.798Z,2.13
2023-11-26T09:24:54.073Z,2.40
2023-11-26T09:27:20.420Z,2.13
2023-11-26T09:29:46.733Z,2.07
2023-11-26T09:32:13.114Z,2.47
2023-11-26T09:34:40.642Z,2.20
2023-11-26T09:37:09.320Z,2.13
2023-11-26T09:39:36.361Z,2.00
2023-11-26T09:42:03.942Z,2.10
2023-11-26T09:44:30.278Z,2.30
2023-11-26T09:46:57.017Z,2.00
2023-11-26T09:49:23.507Z,1.90
2023-11-26T09:51:58.092Z,5.13
2023-11-26T09:54:25.196Z,4.00
2023-11-26T09:56:56.720Z,2.30
2023-11-26T09:59:26.787Z,2.10
2023-11-26T10:01:53.210Z,2.67
2023-11-26T10:04:19.990Z,2.80
2023-11-26T10:06:56.506Z,2.43
2023-11-26T10:09:23.649Z,1.90
2023-11-26T10:11:50.260Z,1.73
2023-11-26T10:14:16.619Z,2.33
2023-11-26T10:16:43.054Z,3.77
2023-11-26T10:19:21.404Z,7.00
2023-11-26T10:21:51.963Z,4.37
2023-11-26T10:24:23.660Z,1.50
2023-11-26T10:26:53.152Z,1.70
2023-11-26T10:29:22.499Z,1.80
2023-11-26T10:32:08.050Z,1.77
2023-11-26T10:34:37.763Z,1.83
2023-11-26T10:37:18.511Z,1.73
2023-11-26T10:39:44.934Z,1.80
2023-11-26T10:42:11.532Z,1.57
2023-11-26T10:44:39.258Z,1.77
2023-11-26T10:47:06.938Z,2.30
2023-11-26T10:49:48.143Z,1.70
2023-11-26T10:52:23.630Z,2.10
2023-11-26T10:55:08.844Z,1.67
2023-11-26T10:57:40.517Z,1.90
2023-11-26T11:00:08.314Z,5.00
2023-11-26T11:02:36.311Z,6.30
2023-11-26T11:05:05.597Z,2.20
2023-11-26T11:07:33.229Z,1.87
2023-11-26T11:10:11.902Z,2.17
2023-11-26T11:12:46.980Z,1.90
2023-11-26T11:15:17.124Z,1.70
2023-11-26T11:17:43.442Z,1.83
2023-11-26T11:20:11.236Z,1.90
2023-11-26T11:22:43.009Z,1.57
2023-11-26T11:25:13.468Z,1.70
2023-11-26T11:28:00.147Z,1.67
2023-11-26T11:30:32.682Z,1.80
2023-11-26T11:33:08.930Z,1.70
2023-11-26T11:35:41.983Z,2.07
2023-11-26T11:38:10.758Z,1.77
2023-11-26T11:40:56.590Z,2.00
2023-11-26T11:43:23.350Z,2.00
2023-11-26T11:45:49.984Z,1.70
2023-11-26T11:48:35.023Z,2.07
2023-11-26T11:51:01.360Z,2.33
2023-11-26T11:53:35.100Z,2.10
2023-11-26T11:56:07.323Z,1.83
2023-11-26T11:58:34.839Z,1.47
2023-11-26T12:01:01.612Z,1.67
2023-11-26T12:03:28.390Z,1.60
2023-11-26T12:06:08.688Z,1.63
2023-11-26T12:08:35.073Z,1.33
2023-11-26T12:11:08.517Z,1.60
2023-11-26T12:13:40.788Z,1.37
2023-11-26T12:16:07.455Z,2.70
2023-11-26T12:18:33.828Z,3.77
2023-11-26T12:21:00.117Z,2.73
2023-11-26T12:23:36.618Z,1.60
2023-11-26T12:26:04.594Z,1.60
2023-11-26T12:28:40.550Z,1.67
2023-11-26T12:31:06.884Z,1.40
2023-11-26T12:33:33.270Z,1.67
2023-11-26T12:35:59.591Z,1.37
2023-11-26T12:38:27.355Z,1.73
2023-11-26T12:40:54.002Z,3.80
2023-11-26T12:43:21.024Z,5.77
2023-11-26T12:45:47.464Z,1.97
2023-11-26T12:48:14.589Z,2.03
2023-11-26T12:50:44.952Z,1.57
2023-11-26T12:53:12.427Z,1.70
2023-11-26T12:55:45.684Z,1.70
2023-11-26T12:58:21.389Z,1.80
2023-11-26T13:00:47.977Z,1.90
2023-11-26T13:03:19.669Z,1.87
2023-11-26T13:05:46.495Z,1.60
2023-11-26T13:08:21.423Z,1.93
2023-11-26T13:10:55.486Z,2.00
2023-11-26T13:13:24.555Z,1.80
2023-11-26T13:15:51.143Z,2.00
2023-11-26T13:18:18.053Z,5.17
2023-11-26T13:20:50.981Z,6.77
2023-11-26T13:23:18.216Z,1.80
2023-11-26T13:25:52.670Z,11.77
2023-11-26T13:28:20.071Z,7.33
2023-11-26T13:30:46.532Z,7.97
2023-11-26T13:33:13.807Z,4.00
2023-11-26T13:35:41.735Z,1.80
2023-11-26T13:38:08.965Z,1.97
2023-11-26T13:40:38.128Z,1.93
2023-11-26T13:43:12.624Z,1.90
2023-11-26T13:45:42.704Z,1.90
2023-11-26T13:48:11.748Z,1.87
2023-11-26T13:50:39.077Z,1.77
2023-11-26T13:53:08.765Z,1.70
2023-11-26T13:55:35.303Z,1.87
2023-11-26T13:58:03.629Z,2.30
2023-11-26T14:00:31.609Z,1.70
2023-11-26T14:02:58.099Z,1.93
2023-11-26T14:05:24.555Z,2.00
2023-11-26T14:07:52.893Z,2.23
2023-11-26T14:10:21.290Z,1.80
2023-11-26T14:12:48.451Z,2.03
2023-11-26T14:15:17.581Z,1.90
2023-11-26T14:17:47.227Z,1.90
2023-11-26T14:20:14.819Z,2.10
2023-11-26T14:22:42.136Z,1.97
2023-11-26T14:25:09.339Z,1.93
2023-11-26T14:27:35.683Z,2.20
2023-11-26T14:30:01.992Z,1.90
2023-11-26T14:32:29.773Z,2.10
2023-11-26T14:34:56.516Z,1.83
2023-11-26T14:37:23.497Z,1.90
2023-11-26T14:39:52.534Z,2.10
2023-11-26T14:42:19.477Z,2.17
2023-11-26T14:44:45.754Z,9.93
2023-11-26T14:47:12.297Z,16.43
2023-11-26T14:49:39.597Z,12.73
2023-11-26T14:52:09.680Z,3.87
2023-11-26T14:54:36.879Z,2.50
2023-11-26T14:57:03.513Z,2.23
2023-11-26T14:59:32.779Z,2.60
2023-11-26T15:01:59.563Z,2.33
2023-11-26T15:04:25.909Z,2.60
2023-11-26T15:06:52.634Z,2.30
2023-11-26T15:09:20.835Z,2.40
2023-11-26T15:11:47.540Z,3.10
2023-11-26T15:14:15.579Z,3.10
2023-11-26T15:16:42.256Z,2.60
2023-11-26T15:19:11.279Z,2.30
2023-11-26T15:21:37.592Z,2.87
2023-11-26T15:24:04.120Z,3.10
2023-11-26T15:26:31.678Z,2.67
2023-11-26T15:28:58.232Z,2.83
2023-11-26T15:31:25.173Z,2.73
2023-11-26T15:33:52.092Z,2.77
2023-11-26T15:36:20.321Z,3.17
2023-11-26T15:38:47.048Z,3.07
2023-11-26T15:41:19.805Z,3.10
2023-11-26T15:43:47.714Z,3.13
2023-11-26T15:46:20.242Z,2.63
2023-11-26T15:48:46.828Z,3.83
2023-11-26T15:51:13.304Z,3.13
2023-11-26T15:53:39.856Z,3.67
2023-11-26T15:56:06.757Z,3.67
2023-11-26T15:58:33.469Z,3.83
2023-11-26T16:01:05.644Z,4.57
2023-11-26T16:03:32.110Z,5.07
2023-11-26T16:05:58.581Z,4.30
2023-11-26T16:08:25.089Z,4.30
2023-11-26T16:10:51.403Z,7.13
2023-11-26T16:13:18.115Z,5.10
2023-11-26T16:15:44.463Z,4.63
2023-11-26T16:18:11.407Z,4.53
2023-11-26T16:20:38.748Z,4.83
2023-11-26T16:23:05.046Z,5.40
2023-11-26T16:25:31.332Z,5.60
2023-11-26T16:27:58.920Z,6.40
2023-11-26T16:30:25.603Z,5.93
2023-11-26T16:32:54.255Z,6.63
2023-11-26T16:35:20.607Z,6.20
2023-11-26T16:37:46.901Z,6.33
2023-11-26T16:40:13.327Z,6.07
2023-11-26T16:42:39.766Z,6.43
2023-11-26T16:45:07.099Z,10.93
2023-11-26T16:47:36.046Z,23.27
2023-11-26T16:50:03.567Z,25.37
2023-11-26T16:52:30.092Z,13.33
2023-11-26T16:54:56.763Z,11.40
2023-11-26T16:57:23.590Z,9.67
2023-11-26T16:59:50.038Z,19.27
2023-11-26T17:02:16.941Z,12.43
2023-11-26T17:04:43.274Z,12.37
2023-11-26T17:07:09.624Z,8.83
2023-11-26T17:09:36.254Z,8.17
2023-11-26T17:12:02.653Z,7.57
2023-11-26T17:14:30.388Z,7.77
2023-11-26T17:16:58.382Z,7.57
2023-11-26T17:19:26.870Z,6.50
2023-11-26T17:21:53.251Z,6.63
2023-11-26T17:24:19.619Z,6.80
2023-11-26T17:26:45.927Z,6.63
2023-11-26T17:29:12.451Z,7.33
2023-11-26T17:31:40.366Z,6.53
2023-11-26T17:34:09.179Z,13.37
2023-11-26T17:36:37.368Z,24.43
2023-11-26T17:39:06.895Z,12.03
2023-11-26T17:41:33.825Z,7.73
2023-11-26T17:44:00.380Z,7.73
2023-11-26T17:46:26.755Z,7.20
2023-11-26T17:48:53.858Z,8.90
2023-11-26T17:51:20.218Z,20.87
2023-11-26T17:53:46.516Z,8.90
2023-11-26T17:56:13.266Z,8.00
2023-11-26T17:58:39.684Z,7.77
2023-11-26T18:01:06.490Z,7.20
2023-11-26T18:03:33.006Z,16.70
2023-11-26T18:05:59.372Z,17.57
2023-11-26T18:08:25.722Z,17.60
2023-11-26T18:10:52.021Z,9.07
2023-11-26T18:13:18.342Z,7.63
2023-11-26T18:15:45.346Z,7.40
2023-11-26T18:18:11.728Z,7.80
2023-11-26T18:20:38.154Z,8.20
2023-11-26T18:23:04.929Z,7.27
2023-11-26T18:25:32.005Z,8.03
2023-11-26T18:27:58.376Z,8.00
2023-11-26T18:30:24.741Z,6.67
2023-11-26T18:32:51.063Z,7.20
2023-11-26T18:35:17.513Z,7.70
2023-11-26T18:37:43.892Z,7.00
2023-11-26T18:40:11.915Z,6.87
2023-11-26T18:42:38.367Z,8.57
2023-11-26T18:45:05.012Z,7.63
2023-11-26T18:47:31.323Z,6.60
2023-11-26T18:49:57.612Z,6.57
2023-11-26T18:52:23.945Z,6.47
2023-11-26T18:54:52.209Z,6.57
2023-11-26T18:57:18.608Z,15.50
2023-11-26T18:59:45.059Z,9.20
2023-11-26T19:02:11.504Z,6.50
2023-11-26T19:04:39.045Z,6.20
2023-11-26T19:07:06.055Z,5.90
2023-11-26T19:09:32.433Z,6.30
2023-11-26T19:11:59.539Z,5.97
2023-11-26T19:14:25.838Z,5.50
2023-11-26T19:16:52.706Z,5.87
2023-11-26T19:19:19.031Z,6.27
2023-11-26T19:21:45.387Z,6.23
2023-11-26T19:24:11.742Z,5.93
2023-11-26T19:26:38.027Z,6.20
2023-11-26T19:29:04.444Z,5.80
2023-11-26T19:31:30.787Z,6.00
2023-11-26T19:33:57.172Z,5.53
2023-11-26T19:36:25.073Z,6.03
2023-11-26T19:38:52.221Z,6.17
2023-11-26T19:41:20.048Z,6.00
2023-11-26T19:43:46.637Z,6.20
2023-11-26T19:46:13.573Z,6.53
2023-11-26T19:48:41.094Z,6.23
2023-11-26T19:51:13.256Z,5.73
2023-11-26T19:53:41.040Z,6.50
2023-11-26T19:56:07.878Z,18.70
2023-11-26T19:58:34.568Z,19.53
2023-11-26T20:01:01.287Z,11.70
2023-11-26T20:03:29.202Z,7.27
2023-11-26T20:05:55.556Z,7.30
2023-11-26T20:08:21.985Z,6.67
2023-11-26T20:10:48.561Z,6.73
2023-11-26T20:13:14.956Z,6.20
2023-11-26T20:15:41.277Z,6.53
2023-11-26T20:18:09.167Z,6.67
2023-11-26T20:20:35.517Z,7.63
2023-11-26T20:23:01.858Z,9.33
2023-11-26T20:25:28.117Z,8.33
2023-11-26T20:27:54.472Z,8.80
2023-11-26T20:30:21.479Z,7.77
2023-11-26T20:32:48.417Z,31.17
2023-11-26T20:35:14.793Z,8.40
2023-11-26T20:37:41.272Z,8.83
2023-11-26T20:40:07.835Z,8.30
2023-11-26T20:42:34.646Z,8.27
2023-11-26T20:45:01.094Z,8.60
2023-11-26T20:47:27.579Z,8.50
2023-11-26T20:49:53.945Z,8.10
2023-11-26T20:52:20.259Z,7.87
2023-11-26T20:54:49.774Z,7.73
2023-11-26T20:57:16.542Z,7.97
2023-11-26T20:59:43.534Z,8.10
2023-11-26T21:02:10.314Z,7.50
2023-11-26T21:04:37.741Z,7.97
2023-11-26T21:07:04.327Z,8.60
2023-11-26T21:09:30.671Z,8.03
2023-11-26T21:11:57.276Z,7.90
2023-11-26T21:14:24.123Z,7.70
2023-11-26T21:16:51.233Z,7.63
2023-11-26T21:19:17.693Z,7.73
2023-11-26T21:21:44.146Z,8.60
2023-11-26T21:24:11.699Z,8.50
2023-11-26T21:26:38.343Z,9.70
2023-11-26T21:29:05.385Z,9.27
2023-11-26T21:31:31.758Z,7.97
2023-11-26T21:33:59.136Z,8.53
2023-11-26T21:36:26.000Z,8.50
2023-11-26T21:38:52.327Z,8.20
2023-11-26T21:41:19.244Z,8.03
2023-11-26T21:43:45.660Z,8.13
2023-11-26T21:46:32.562Z,7.83
2023-11-26T21:49:05.734Z,7.73
2023-11-26T21:51:32.249Z,7.87
2023-11-26T21:53:59.381Z,7.73
2023-11-26T21:56:25.728Z,7.73
2023-11-26T21:58:53.021Z,7.60
2023-11-26T22:01:19.376Z,7.10
2023-11-26T22:03:47.575Z,7.97
2023-11-26T22:06:15.777Z,7.73
2023-11-26T22:08:55.236Z,8.00
2023-11-26T22:11:22.099Z,7.87
2023-11-26T22:13:49.156Z,7.90
2023-11-26T22:16:16.869Z,7.80
2023-11-26T22:18:43.229Z,8.67
2023-11-26T22:21:19.407Z,9.40
2023-11-26T22:23:46.207Z,9.93
2023-11-26T22:26:12.709Z,11.17
2023-11-26T22:28:42.593Z,12.20
2023-11-26T22:31:09.268Z,12.63
2023-11-26T22:33:36.493Z,12.90
2023-11-26T22:36:02.921Z,13.20
2023-11-26T22:38:29.699Z,13.60
2023-11-26T22:40:55.978Z,12.90
2023-11-26T22:43:22.358Z,13.63
2023-11-26T22:45:48.759Z,13.73
2023-11-26T22:48:17.058Z,13.73
2023-11-26T22:50:51.381Z,14.73
2023-11-26T22:53:19.245Z,14.70
2023-11-26T22:55:45.501Z,15.00
2023-11-26T22:58:12.448Z,14.37
2023-11-26T23:00:39.650Z,14.33
2023-11-26T23:03:06.077Z,15.03
2023-11-26T23:05:32.479Z,13.70
2023-11-26T23:07:58.839Z,14.00
2023-11-26T23:10:25.179Z,13.70
2023-11-26T23:12:51.578Z,13.97
2023-11-26T23:15:17.966Z,13.27
2023-11-26T23:17:44.269Z,13.97
2023-11-26T23:20:10.707Z,14.00
2023-11-26T23:22:37.024Z,13.30
2023-11-26T23:25:04.165Z,12.20
2023-11-26T23:27:30.654Z,12.30
2023-11-26T23:29:56.930Z,12.70
2023-11-26T23:32:23.273Z,10.97
2023-11-26T23:34:49.606Z,9.37
2023-11-26T23:37:15.911Z,10.73
2023-11-26T23:39:42.367Z,11.53
2023-11-26T23:42:09.456Z,10.20
2023-11-26T23:44:35.821Z,10.37
2023-11-26T23:47:02.196Z,10.37
2023-11-26T23:49:28.579Z,11.63
2023-11-26T23:51:55.612Z,11.30
2023-11-26T23:54:21.954Z,10.97
2023-11-26T23:56:48.220Z,11.10
2023-11-26T23:59:14.539Z,10.07
